sensor_id;sensor_type;location;lat;lon;timestamp;pressure;altitude;pressure_sealevel;temperature;humidity
57442;BME280;43284;47.042;15.498;2024-01-06T00:02:11;95832.38;;;3.53;100.00
57442;BME280;43284;47.042;15.498;2024-01-06T00:04:36;95836.63;;;3.54;100.00
57442;BME280;43284;47.042;15.498;2024-01-06T00:07:02;95835.66;;;3.56;100.00
57442;BME280;43284;47.042;15.498;2024-01-06T00:09:28;95836.53;;;3.57;100.00
57442;BME280;43284;47.042;15.498;2024-01-06T00:11:53;95838.09;;;3.61;100.00
57442;BME280;43284;47.042;15.498;2024-01-06T00:14:19;95838.78;;;3.64;100.00
57442;BME280;43284;47.042;15.498;2024-01-06T00:16:44;95839.59;;;3.65;100.00
57442;BME280;43284;47.042;15.498;2024-01-06T00:19:10;95835.28;;;3.65;100.00
57442;BME280;43284;47.042;15.498;2024-01-06T00:21:39;95836.19;;;3.64;100.00
57442;BME280;43284;47.042;15.498;2024-01-06T00:24:04;95826.78;;;3.63;100.00
57442;BME280;43284;47.042;15.498;2024-01-06T00:26:30;95828.44;;;3.64;100.00
57442;BME280;43284;47.042;15.498;2024-01-06T00:28:55;95831.94;;;3.63;100.00
57442;BME280;43284;47.042;15.498;2024-01-06T00:31:21;95834.44;;;3.65;100.00
57442;BME280;43284;47.042;15.498;2024-01-06T00:33:46;95840.38;;;3.67;100.00
57442;BME280;43284;47.042;15.498;2024-01-06T00:36:12;95838.66;;;3.67;100.00
57442;BME280;43284;47.042;15.498;2024-01-06T00:38:37;95838.56;;;3.69;100.00
57442;BME280;43284;47.042;15.498;2024-01-06T00:41:03;95833.19;;;3.74;100.00
57442;BME280;43284;47.042;15.498;2024-01-06T00:43:29;95839.16;;;3.76;100.00
57442;BME280;43284;47.042;15.498;2024-01-06T00:45:54;95830.41;;;3.78;100.00
57442;BME280;43284;47.042;15.498;2024-01-06T00:48:20;95824.31;;;3.81;100.00
57442;BME280;43284;47.042;15.498;2024-01-06T00:50:45;95828.53;;;3.82;100.00
57442;BME280;43284;47.042;15.498;2024-01-06T00:53:12;95826.78;;;3.82;100.00
57442;BME280;43284;47.042;15.498;2024-01-06T00:55:37;95827.56;;;3.84;100.00
57442;BME280;43284;47.042;15.498;2024-01-06T00:58:03;95819.91;;;3.83;100.00
57442;BME280;43284;47.042;15.498;2024-01-06T01:00:29;95818.16;;;3.83;100.00
57442;BME280;43284;47.042;15.498;2024-01-06T01:02:54;95817.22;;;3.84;100.00
57442;BME280;43284;47.042;15.498;2024-01-06T01:05:20;95811.16;;;3.85;100.00
57442;BME280;43284;47.042;15.498;2024-01-06T01:07:45;95811.16;;;3.85;100.00
57442;BME280;43284;47.042;15.498;2024-01-06T01:10:11;95807.75;;;3.85;100.00
57442;BME280;43284;47.042;15.498;2024-01-06T01:12:36;95809.47;;;3.84;100.00
57442;BME280;43284;47.042;15.498;2024-01-06T01:15:02;95807.66;;;3.86;100.00
57442;BME280;43284;47.042;15.498;2024-01-06T01:17:28;95811.09;;;3.87;100.00
57442;BME280;43284;47.042;15.498;2024-01-06T01:19:54;95815.38;;;3.88;100.00
57442;BME280;43284;47.042;15.498;2024-01-06T01:22:20;95806.69;;;3.89;100.00
57442;BME280;43284;47.042;15.498;2024-01-06T01:24:46;95798.88;;;3.90;100.00
57442;BME280;43284;47.042;15.498;2024-01-06T01:27:11;95803.16;;;3.91;100.00
57442;BME280;43284;47.042;15.498;2024-01-06T01:29:37;95792.81;;;3.91;100.00
57442;BME280;43284;47.042;15.498;2024-01-06T01:32:03;95784.28;;;3.89;100.00
57442;BME280;43284;47.042;15.498;2024-01-06T01:34:28;95785.13;;;3.90;100.00
57442;BME280;43284;47.042;15.498;2024-01-06T01:36:54;95783.41;;;3.89;100.00
57442;BME280;43284;47.042;15.498;2024-01-06T01:39:19;95779.13;;;3.89;100.00
57442;BME280;43284;47.042;15.498;2024-01-06T01:41:45;95773.03;;;3.90;100.00
57442;BME280;43284;47.042;15.498;2024-01-06T01:44:11;95783.31;;;3.92;100.00
57442;BME280;43284;47.042;15.498;2024-01-06T01:46:37;95780.72;;;3.92;100.00
57442;BME280;43284;47.042;15.498;2024-01-06T01:49:04;95772.03;;;3.93;100.00
57442;BME280;43284;47.042;15.498;2024-01-06T01:51:32;95765.84;;;3.97;100.00
57442;BME280;43284;47.042;15.498;2024-01-06T01:54:00;95766.66;;;3.98;100.00
57442;BME280;43284;47.042;15.498;2024-01-06T01:56:27;95762.19;;;4.01;100.00
57442;BME280;43284;47.042;15.498;2024-01-06T01:58:56;95757.66;;;4.06;100.00
57442;BME280;43284;47.042;15.498;2024-01-06T02:01:22;95755.06;;;4.06;100.00
57442;BME280;43284;47.042;15.498;2024-01-06T02:03:47;95760.25;;;4.06;100.00
57442;BME280;43284;47.042;15.498;2024-01-06T02:06:13;95747.53;;;4.02;100.00
57442;BME280;43284;47.042;15.498;2024-01-06T02:08:39;95743.34;;;3.99;100.00
57442;BME280;43284;47.042;15.498;2024-01-06T02:11:05;95745.22;;;3.96;100.00
57442;BME280;43284;47.042;15.498;2024-01-06T02:13:34;95740.13;;;3.94;100.00
57442;BME280;43284;47.042;15.498;2024-01-06T02:16:04;95745.31;;;3.94;100.00
57442;BME280;43284;47.042;15.498;2024-01-06T02:18:30;95736.72;;;3.94;100.00
57442;BME280;43284;47.042;15.498;2024-01-06T02:20:58;95741.88;;;3.94;100.00
57442;BME280;43284;47.042;15.498;2024-01-06T02:23:24;95733.25;;;3.93;100.00
57442;BME280;43284;47.042;15.498;2024-01-06T02:25:50;95740.13;;;3.94;100.00
57442;BME280;43284;47.042;15.498;2024-01-06T02:28:15;95739.28;;;3.94;100.00
57442;BME280;43284;47.042;15.498;2024-01-06T02:30:41;95733.22;;;3.95;100.00
57442;BME280;43284;47.042;15.498;2024-01-06T02:33:06;95732.22;;;3.97;100.00
57442;BME280;43284;47.042;15.498;2024-01-06T02:35:32;95739.16;;;3.97;100.00
57442;BME280;43284;47.042;15.498;2024-01-06T02:37:57;95728.81;;;3.97;100.00
57442;BME280;43284;47.042;15.498;2024-01-06T02:40:24;95727.06;;;3.97;100.00
57442;BME280;43284;47.042;15.498;2024-01-06T02:42:50;95728.75;;;3.98;100.00
57442;BME280;43284;47.042;15.498;2024-01-06T02:45:15;95725.28;;;3.98;100.00
57442;BME280;43284;47.042;15.498;2024-01-06T02:47:41;95719.22;;;3.99;100.00
57442;BME280;43284;47.042;15.498;2024-01-06T02:50:07;95721.75;;;4.00;100.00
57442;BME280;43284;47.042;15.498;2024-01-06T02:52:32;95718.31;;;4.00;100.00
57442;BME280;43284;47.042;15.498;2024-01-06T02:54:58;95720.84;;;4.01;100.00
57442;BME280;43284;47.042;15.498;2024-01-06T02:57:24;95719.19;;;4.00;100.00
57442;BME280;43284;47.042;15.498;2024-01-06T02:59:49;95711.41;;;4.00;100.00
57442;BME280;43284;47.042;15.498;2024-01-06T03:02:16;95716.50;;;4.02;100.00
57442;BME280;43284;47.042;15.498;2024-01-06T03:04:41;95716.59;;;4.00;100.00
57442;BME280;43284;47.042;15.498;2024-01-06T03:07:07;95716.50;;;4.02;100.00
57442;BME280;43284;47.042;15.498;2024-01-06T03:09:32;95720.00;;;4.01;100.00
57442;BME280;43284;47.042;15.498;2024-01-06T03:11:58;95715.66;;;4.01;100.00
57442;BME280;43284;47.042;15.498;2024-01-06T03:14:24;95716.50;;;4.02;100.00
57442;BME280;43284;47.042;15.498;2024-01-06T03:16:49;95713.78;;;4.05;100.00
57442;BME280;43284;47.042;15.498;2024-01-06T03:19:14;95715.50;;;4.04;100.00
57442;BME280;43284;47.042;15.498;2024-01-06T03:21:40;95720.69;;;4.04;100.00
57442;BME280;43284;47.042;15.498;2024-01-06T03:24:07;95718.97;;;4.05;100.00
57442;BME280;43284;47.042;15.498;2024-01-06T03:26:33;95719.78;;;4.05;100.00
57442;BME280;43284;47.042;15.498;2024-01-06T03:28:59;95715.44;;;4.06;100.00
57442;BME280;43284;47.042;15.498;2024-01-06T03:31:24;95719.56;;;4.10;100.00
57442;BME280;43284;47.042;15.498;2024-01-06T03:33:50;95720.50;;;4.09;100.00
57442;BME280;43284;47.042;15.498;2024-01-06T03:36:18;95720.63;;;4.06;100.00
57442;BME280;43284;47.042;15.498;2024-01-06T03:38:44;95723.28;;;4.04;100.00
57442;BME280;43284;47.042;15.498;2024-01-06T03:41:09;95717.31;;;4.02;100.00
57442;BME280;43284;47.042;15.498;2024-01-06T03:43:35;95722.50;;;4.02;100.00
57442;BME280;43284;47.042;15.498;2024-01-06T03:46:01;95728.59;;;4.01;100.00
57442;BME280;43284;47.042;15.498;2024-01-06T03:48:26;95727.81;;;3.99;100.00
57442;BME280;43284;47.042;15.498;2024-01-06T03:50:52;95720.06;;;3.99;100.00
57442;BME280;43284;47.042;15.498;2024-01-06T03:53:17;95720.22;;;3.96;100.00
57442;BME280;43284;47.042;15.498;2024-01-06T03:55:43;95720.22;;;3.96;100.00
57442;BME280;43284;47.042;15.498;2024-01-06T03:58:08;95725.38;;;3.96;100.00
57442;BME280;43284;47.042;15.498;2024-01-06T04:00:34;95727.97;;;3.96;100.00
57442;BME280;43284;47.042;15.498;2024-01-06T04:02:59;95733.16;;;3.96;100.00
57442;BME280;43284;47.042;15.498;2024-01-06T04:05:25;95735.78;;;3.95;100.00
57442;BME280;43284;47.042;15.498;2024-01-06T04:07:50;95729.78;;;3.94;100.00
57442;BME280;43284;47.042;15.498;2024-01-06T04:10:16;95733.22;;;3.95;100.00
57442;BME280;43284;47.042;15.498;2024-01-06T04:12:41;95728.97;;;3.94;100.00
57442;BME280;43284;47.042;15.498;2024-01-06T04:15:07;95735.78;;;3.95;100.00
57442;BME280;43284;47.042;15.498;2024-01-06T04:17:33;95729.78;;;3.94;100.00
57442;BME280;43284;47.042;15.498;2024-01-06T04:19:58;95732.38;;;3.94;100.00
57442;BME280;43284;47.042;15.498;2024-01-06T04:22:24;95726.44;;;3.92;100.00
57442;BME280;43284;47.042;15.498;2024-01-06T04:24:49;95728.09;;;3.93;100.00
57442;BME280;43284;47.042;15.498;2024-01-06T04:27:15;95725.50;;;3.93;100.00
57442;BME280;43284;47.042;15.498;2024-01-06T04:29:41;95728.09;;;3.93;100.00
57442;BME280;43284;47.042;15.498;2024-01-06T04:32:06;95725.50;;;3.93;100.00
57442;BME280;43284;47.042;15.498;2024-01-06T04:34:33;95724.69;;;3.92;100.00
57442;BME280;43284;47.042;15.498;2024-01-06T04:36:58;95722.16;;;3.91;100.00
57442;BME280;43284;47.042;15.498;2024-01-06T04:39:24;95727.31;;;3.91;100.00
57442;BME280;43284;47.042;15.498;2024-01-06T04:41:49;95723.97;;;3.89;100.00
57442;BME280;43284;47.042;15.498;2024-01-06T04:44:15;95725.72;;;3.88;100.00
57442;BME280;43284;47.042;15.498;2024-01-06T04:46:41;95731.72;;;3.89;100.00
57442;BME280;43284;47.042;15.498;2024-01-06T04:49:06;95736.91;;;3.89;100.00
57442;BME280;43284;47.042;15.498;2024-01-06T04:51:32;95732.66;;;3.88;100.00
57442;BME280;43284;47.042;15.498;2024-01-06T04:53:57;95733.47;;;3.88;100.00
57442;BME280;43284;47.042;15.498;2024-01-06T04:56:23;95736.06;;;3.88;100.00
57442;BME280;43284;47.042;15.498;2024-01-06T04:58:51;95741.22;;;3.88;100.00
57442;BME280;43284;47.042;15.498;2024-01-06T05:01:17;95742.78;;;3.92;100.00
57442;BME280;43284;47.042;15.498;2024-01-06T05:03:43;95745.34;;;3.92;100.00
57442;BME280;43284;47.042;15.498;2024-01-06T05:06:08;95740.25;;;3.91;100.00
57442;BME280;43284;47.042;15.498;2024-01-06T05:08:33;95739.41;;;3.90;100.00
57442;BME280;43284;47.042;15.498;2024-01-06T05:11:01;95738.59;;;3.90;100.00
57442;BME280;43284;47.042;15.498;2024-01-06T05:13:27;95738.59;;;3.90;100.00
57442;BME280;43284;47.042;15.498;2024-01-06T05:15:52;95748.00;;;3.91;100.00
57442;BME280;43284;47.042;15.498;2024-01-06T05:18:18;95744.59;;;3.90;100.00
57442;BME280;43284;47.042;15.498;2024-01-06T05:20:43;95748.00;;;3.91;100.00
57442;BME280;43284;47.042;15.498;2024-01-06T05:23:09;95745.41;;;3.91;100.00
57442;BME280;43284;47.042;15.498;2024-01-06T05:25:34;95746.28;;;3.91;100.00
57442;BME280;43284;47.042;15.498;2024-01-06T05:28:00;95741.94;;;3.92;100.00
57442;BME280;43284;47.042;15.498;2024-01-06T05:30:26;95748.88;;;3.91;100.00
57442;BME280;43284;47.042;15.498;2024-01-06T05:32:51;95744.53;;;3.92;100.00
57442;BME280;43284;47.042;15.498;2024-01-06T05:35:20;95745.41;;;3.91;100.00
57442;BME280;43284;47.042;15.498;2024-01-06T05:37:45;95749.69;;;3.92;100.00
57442;BME280;43284;47.042;15.498;2024-01-06T05:40:11;95757.41;;;3.94;100.00
57442;BME280;43284;47.042;15.498;2024-01-06T05:42:36;95750.53;;;3.92;100.00
57442;BME280;43284;47.042;15.498;2024-01-06T05:45:02;95753.06;;;3.94;100.00
57442;BME280;43284;47.042;15.498;2024-01-06T05:47:28;95749.53;;;3.95;100.00
57442;BME280;43284;47.042;15.498;2024-01-06T05:49:53;95755.56;;;3.96;100.00
57442;BME280;43284;47.042;15.498;2024-01-06T05:52:19;95746.97;;;3.95;100.00
57442;BME280;43284;47.042;15.498;2024-01-06T05:54:44;95752.06;;;3.97;100.00
57442;BME280;43284;47.042;15.498;2024-01-06T05:57:10;95758.06;;;3.97;100.00
57442;BME280;43284;47.042;15.498;2024-01-06T05:59:36;95755.50;;;3.97;100.00
57442;BME280;43284;47.042;15.498;2024-01-06T06:02:02;95751.16;;;3.98;100.00
57442;BME280;43284;47.042;15.498;2024-01-06T06:04:28;95747.72;;;3.97;100.00
57442;BME280;43284;47.042;15.498;2024-01-06T06:06:53;95751.16;;;3.98;100.00
57442;BME280;43284;47.042;15.498;2024-01-06T06:09:19;95752.00;;;3.98;100.00
57442;BME280;43284;47.042;15.498;2024-01-06T06:11:46;95751.16;;;3.98;100.00
57442;BME280;43284;47.042;15.498;2024-01-06T06:14:11;95746.06;;;3.96;100.00
57442;BME280;43284;47.042;15.498;2024-01-06T06:16:38;95750.38;;;3.96;100.00
57442;BME280;43284;47.042;15.498;2024-01-06T06:19:03;95747.78;;;3.96;100.00
57442;BME280;43284;47.042;15.498;2024-01-06T06:21:29;95756.41;;;3.96;100.00
57442;BME280;43284;47.042;15.498;2024-01-06T06:23:55;95752.13;;;3.95;100.00
57442;BME280;43284;47.042;15.498;2024-01-06T06:26:20;95752.13;;;3.95;100.00
57442;BME280;43284;47.042;15.498;2024-01-06T06:28:46;95750.38;;;3.96;100.00
57442;BME280;43284;47.042;15.498;2024-01-06T06:31:11;95747.78;;;3.96;100.00
57442;BME280;43284;47.042;15.498;2024-01-06T06:33:37;95746.06;;;3.96;100.00
57442;BME280;43284;47.042;15.498;2024-01-06T06:36:03;95754.66;;;3.97;100.00
57442;BME280;43284;47.042;15.498;2024-01-06T06:38:28;95758.13;;;3.96;100.00
57442;BME280;43284;47.042;15.498;2024-01-06T06:40:54;95751.31;;;3.95;100.00
57442;BME280;43284;47.042;15.498;2024-01-06T06:43:20;95761.59;;;3.96;100.00
57442;BME280;43284;47.042;15.498;2024-01-06T06:45:46;95758.13;;;3.96;100.00
57442;BME280;43284;47.042;15.498;2024-01-06T06:48:12;95758.13;;;3.96;100.00
57442;BME280;43284;47.042;15.498;2024-01-06T06:50:37;95755.50;;;3.97;100.00
57442;BME280;43284;47.042;15.498;2024-01-06T06:53:03;95750.31;;;3.97;100.00
57442;BME280;43284;47.042;15.498;2024-01-06T06:55:29;95745.97;;;3.98;100.00
57442;BME280;43284;47.042;15.498;2024-01-06T06:57:57;95742.50;;;3.99;100.00
57442;BME280;43284;47.042;15.498;2024-01-06T07:00:23;95745.91;;;3.99;100.00
57442;BME280;43284;47.042;15.498;2024-01-06T07:02:48;95749.34;;;4.00;100.00
57442;BME280;43284;47.042;15.498;2024-01-06T07:05:14;95751.84;;;4.01;100.00
57442;BME280;43284;47.042;15.498;2024-01-06T07:07:39;95752.63;;;4.03;100.00
57442;BME280;43284;47.042;15.498;2024-01-06T07:10:05;95750.81;;;4.05;100.00
57442;BME280;43284;47.042;15.498;2024-01-06T07:12:32;95747.31;;;4.06;100.00
57442;BME280;43284;47.042;15.498;2024-01-06T07:14:57;95744.66;;;4.08;100.00
57442;BME280;43284;47.042;15.498;2024-01-06T07:17:26;95755.84;;;4.08;100.00
57442;BME280;43284;47.042;15.498;2024-01-06T07:19:51;95761.94;;;4.07;100.00
57442;BME280;43284;47.042;15.498;2024-01-06T07:22:17;95764.50;;;4.07;100.00
57442;BME280;43284;47.042;15.498;2024-01-06T07:24:43;95768.75;;;4.08;100.00
57442;BME280;43284;47.042;15.498;2024-01-06T07:27:09;95769.63;;;4.09;100.00
57442;BME280;43284;47.042;15.498;2024-01-06T07:29:35;95765.28;;;4.09;100.00
57442;BME280;43284;47.042;15.498;2024-01-06T07:32:00;95772.22;;;4.09;100.00
57442;BME280;43284;47.042;15.498;2024-01-06T07:34:26;95768.84;;;4.07;100.00
57442;BME280;43284;47.042;15.498;2024-01-06T07:36:51;95773.09;;;4.08;100.00
57442;BME280;43284;47.042;15.498;2024-01-06T07:39:17;95777.28;;;4.10;100.00
57442;BME280;43284;47.042;15.498;2024-01-06T07:41:42;95767.09;;;4.07;100.00
57442;BME280;43284;47.042;15.498;2024-01-06T07:44:10;95764.56;;;4.06;100.00
57442;BME280;43284;47.042;15.498;2024-01-06T07:46:35;95759.41;;;4.06;100.00
57442;BME280;43284;47.042;15.498;2024-01-06T07:49:02;95762.00;;;4.06;100.00
57442;BME280;43284;47.042;15.498;2024-01-06T07:51:28;95761.09;;;4.07;100.00
57442;BME280;43284;47.042;15.498;2024-01-06T07:53:53;95753.34;;;4.07;100.00
57442;BME280;43284;47.042;15.498;2024-01-06T07:56:19;95758.41;;;4.08;100.00
57442;BME280;43284;47.042;15.498;2024-01-06T07:58:47;95755.78;;;4.10;100.00
57442;BME280;43284;47.042;15.498;2024-01-06T08:01:13;95760.13;;;4.09;100.00
57442;BME280;43284;47.042;15.498;2024-01-06T08:03:38;95761.00;;;4.08;100.00
57442;BME280;43284;47.042;15.498;2024-01-06T08:06:07;95759.28;;;4.09;100.00
57442;BME280;43284;47.042;15.498;2024-01-06T08:08:35;95760.94;;;4.10;100.00
57442;BME280;43284;47.042;15.498;2024-01-06T08:11:04;95762.59;;;4.11;100.00
57442;BME280;43284;47.042;15.498;2024-01-06T08:13:29;95759.97;;;4.12;100.00
57442;BME280;43284;47.042;15.498;2024-01-06T08:15:55;95762.50;;;4.14;100.00
57442;BME280;43284;47.042;15.498;2024-01-06T08:18:20;95767.66;;;4.14;100.00
57442;BME280;43284;47.042;15.498;2024-01-06T08:20:47;95760.66;;;4.16;100.00
57442;BME280;43284;47.042;15.498;2024-01-06T08:23:12;95766.69;;;4.17;100.00
57442;BME280;43284;47.042;15.498;2024-01-06T08:25:38;95760.63;;;4.18;100.00
57442;BME280;43284;47.042;15.498;2024-01-06T08:28:03;95767.38;;;4.20;100.00
57442;BME280;43284;47.042;15.498;2024-01-06T08:30:29;95766.41;;;4.23;100.00
57442;BME280;43284;47.042;15.498;2024-01-06T08:32:55;95768.94;;;4.24;100.00
57442;BME280;43284;47.042;15.498;2024-01-06T08:35:20;95763.59;;;4.27;100.00
57442;BME280;43284;47.042;15.498;2024-01-06T08:37:46;95761.00;;;4.27;100.00
57442;BME280;43284;47.042;15.498;2024-01-06T08:40:11;95761.84;;;4.28;100.00
57442;BME280;43284;47.042;15.498;2024-01-06T08:42:37;95772.91;;;4.31;100.00
57442;BME280;43284;47.042;15.498;2024-01-06T08:45:03;95770.31;;;4.31;100.00
57442;BME280;43284;47.042;15.498;2024-01-06T08:47:30;95775.44;;;4.33;100.00
57442;BME280;43284;47.042;15.498;2024-01-06T08:49:55;95772.84;;;4.33;100.00
57442;BME280;43284;47.042;15.498;2024-01-06T08:52:21;95775.34;;;4.34;100.00
57442;BME280;43284;47.042;15.498;2024-01-06T08:54:47;95777.91;;;4.34;100.00
57442;BME280;43284;47.042;15.498;2024-01-06T08:57:12;95783.91;;;4.35;100.00
57442;BME280;43284;47.042;15.498;2024-01-06T08:59:38;95790.78;;;4.36;100.00
57442;BME280;43284;47.042;15.498;2024-01-06T09:02:05;95792.44;;;4.37;100.00
57442;BME280;43284;47.042;15.498;2024-01-06T09:04:31;95790.72;;;4.38;100.00
57442;BME280;43284;47.042;15.498;2024-01-06T09:06:57;95787.09;;;4.42;100.00
57442;BME280;43284;47.042;15.498;2024-01-06T09:09:23;95786.22;;;4.41;100.00
57442;BME280;43284;47.042;15.498;2024-01-06T09:11:50;95790.50;;;4.42;100.00
57442;BME280;43284;47.042;15.498;2024-01-06T09:14:19;95793.00;;;4.44;100.00
57442;BME280;43284;47.042;15.498;2024-01-06T09:16:45;95797.22;;;4.46;100.00
57442;BME280;43284;47.042;15.498;2024-01-06T09:19:11;95808.34;;;4.48;100.00
57442;BME280;43284;47.042;15.498;2024-01-06T09:21:36;95802.25;;;4.49;100.00
57442;BME280;43284;47.042;15.498;2024-01-06T09:24:02;95802.09;;;4.52;100.00
57442;BME280;43284;47.042;15.498;2024-01-06T09:26:32;95808.03;;;4.54;100.00
57442;BME280;43284;47.042;15.498;2024-01-06T09:28:59;95803.63;;;4.57;100.00
57442;BME280;43284;47.042;15.498;2024-01-06T09:31:25;95803.56;;;4.58;100.00
57442;BME280;43284;47.042;15.498;2024-01-06T09:33:50;95800.09;;;4.59;100.00
57442;BME280;43284;47.042;15.498;2024-01-06T09:36:16;95799.94;;;4.62;100.00
57442;BME280;43284;47.042;15.498;2024-01-06T09:38:42;95797.19;;;4.65;100.00
57442;BME280;43284;47.042;15.498;2024-01-06T09:41:07;95797.06;;;4.68;100.00
57442;BME280;43284;47.042;15.498;2024-01-06T09:43:33;95794.38;;;4.70;100.00
57442;BME280;43284;47.042;15.498;2024-01-06T09:46:25;95803.78;;;4.72;100.00
57442;BME280;43284;47.042;15.498;2024-01-06T09:48:52;95804.53;;;4.74;100.00
57442;BME280;43284;47.042;15.498;2024-01-06T09:51:19;95799.38;;;4.74;100.00
57442;BME280;43284;47.042;15.498;2024-01-06T09:53:56;95796.63;;;4.78;100.00
57442;BME280;43284;47.042;15.498;2024-01-06T09:56:24;95799.97;;;4.80;100.00
57442;BME280;43284;47.042;15.498;2024-01-06T09:58:50;95798.16;;;4.82;100.00
57442;BME280;43284;47.042;15.498;2024-01-06T10:01:15;95794.63;;;4.83;100.00
57442;BME280;43284;47.042;15.498;2024-01-06T10:03:42;95792.75;;;4.86;100.00
57442;BME280;43284;47.042;15.498;2024-01-06T10:06:08;95790.88;;;4.90;100.00
57442;BME280;43284;47.042;15.498;2024-01-06T10:08:35;95788.94;;;4.93;100.00
57442;BME280;43284;47.042;15.498;2024-01-06T10:11:01;95784.53;;;4.95;100.00
57442;BME280;43284;47.042;15.498;2024-01-06T10:13:26;95782.72;;;4.98;100.00
57442;BME280;43284;47.042;15.498;2024-01-06T10:15:54;95777.47;;;4.99;100.00
57442;BME280;43284;47.042;15.498;2024-01-06T10:18:27;95778.22;;;5.01;100.00
57442;BME280;43284;47.042;15.498;2024-01-06T10:20:55;95776.31;;;5.05;100.00
57442;BME280;43284;47.042;15.498;2024-01-06T10:23:25;95783.19;;;5.06;100.00
57442;BME280;43284;47.042;15.498;2024-01-06T10:25:55;95777.94;;;5.07;100.00
57442;BME280;43284;47.042;15.498;2024-01-06T10:28:21;95783.00;;;5.09;100.00
57442;BME280;43284;47.042;15.498;2024-01-06T10:30:48;95787.38;;;5.08;100.00
57442;BME280;43284;47.042;15.498;2024-01-06T10:33:14;95777.84;;;5.09;100.00
57442;BME280;43284;47.042;15.498;2024-01-06T10:35:40;95777.00;;;5.08;100.00
57442;BME280;43284;47.042;15.498;2024-01-06T10:38:07;95775.34;;;5.07;100.00
57442;BME280;43284;47.042;15.498;2024-01-06T10:40:32;95771.81;;;5.08;100.00
57442;BME280;43284;47.042;15.498;2024-01-06T10:42:59;95771.81;;;5.08;100.00
57442;BME280;43284;47.042;15.498;2024-01-06T10:45:28;95770.91;;;5.09;100.00
57442;BME280;43284;47.042;15.498;2024-01-06T10:47:55;95769.16;;;5.10;100.00
57442;BME280;43284;47.042;15.498;2024-01-06T10:50:21;95766.47;;;5.11;100.00
57442;BME280;43284;47.042;15.498;2024-01-06T10:52:47;95760.41;;;5.12;100.00
57442;BME280;43284;47.042;15.498;2024-01-06T10:55:15;95758.66;;;5.13;100.00
57442;BME280;43284;47.042;15.498;2024-01-06T10:57:43;95750.81;;;5.14;100.00
57442;BME280;43284;47.042;15.498;2024-01-06T11:00:12;95747.22;;;5.17;100.00
57442;BME280;43284;47.042;15.498;2024-01-06T11:02:39;95752.22;;;5.20;100.00
57442;BME280;43284;47.042;15.498;2024-01-06T11:05:06;95754.75;;;5.22;100.00
57442;BME280;43284;47.042;15.498;2024-01-06T11:07:36;95751.28;;;5.23;100.00
57442;BME280;43284;47.042;15.498;2024-01-06T11:10:14;95743.50;;;5.23;100.00
57442;BME280;43284;47.042;15.498;2024-01-06T11:12:43;95743.50;;;5.23;100.00
57442;BME280;43284;47.042;15.498;2024-01-06T11:15:09;95749.50;;;5.23;100.00
57442;BME280;43284;47.042;15.498;2024-01-06T11:17:54;95737.38;;;5.24;100.00
57442;BME280;43284;47.042;15.498;2024-01-06T11:20:21;95739.97;;;5.24;100.00
57442;BME280;43284;47.042;15.498;2024-01-06T11:22:47;95734.78;;;5.24;100.00
57442;BME280;43284;47.042;15.498;2024-01-06T11:25:17;95737.38;;;5.24;100.00
57442;BME280;43284;47.042;15.498;2024-01-06T11:27:49;95731.31;;;5.25;100.00
57442;BME280;43284;47.042;15.498;2024-01-06T11:30:27;95732.13;;;5.25;100.00
57442;BME280;43284;47.042;15.498;2024-01-06T11:32:56;95732.97;;;5.26;100.00
57442;BME280;43284;47.042;15.498;2024-01-06T11:35:26;95721.78;;;5.25;100.00
57442;BME280;43284;47.042;15.498;2024-01-06T11:37:55;95720.00;;;5.26;100.00
57442;BME280;43284;47.042;15.498;2024-01-06T11:43:10;95718.13;;;5.29;100.00
57442;BME280;43284;47.042;15.498;2024-01-06T11:45:41;95713.75;;;5.30;100.00
57442;BME280;43284;47.042;15.498;2024-01-06T11:48:08;95714.59;;;5.30;100.00
57442;BME280;43284;47.042;15.498;2024-01-06T11:50:35;95719.09;;;5.27;100.00
57442;BME280;43284;47.042;15.498;2024-01-06T11:53:03;95721.69;;;5.27;100.00
57442;BME280;43284;47.042;15.498;2024-01-06T11:55:29;95716.59;;;5.25;100.00
57442;BME280;43284;47.042;15.498;2024-01-06T11:57:57;95717.44;;;5.26;100.00
57442;BME280;43284;47.042;15.498;2024-01-06T12:00:27;95717.34;;;5.27;100.00
57442;BME280;43284;47.042;15.498;2024-01-06T12:02:59;95714.66;;;5.29;100.00
57442;BME280;43284;47.042;15.498;2024-01-06T12:05:26;95718.13;;;5.29;100.00
57442;BME280;43284;47.042;15.498;2024-01-06T12:07:57;95713.69;;;5.31;100.00
57442;BME280;43284;47.042;15.498;2024-01-06T12:10:24;95710.19;;;5.32;100.00
57442;BME280;43284;47.042;15.498;2024-01-06T12:13:06;95705.81;;;5.33;100.00
57442;BME280;43284;47.042;15.498;2024-01-06T12:15:36;95705.75;;;5.34;100.00
57442;BME280;43284;47.042;15.498;2024-01-06T12:18:05;95709.19;;;5.35;100.00
57442;BME280;43284;47.042;15.498;2024-01-06T12:20:32;95702.22;;;5.35;100.00
57442;BME280;43284;47.042;15.498;2024-01-06T12:22:57;95699.63;;;5.35;100.00
57442;BME280;43284;47.042;15.498;2024-01-06T12:25:25;95709.09;;;5.36;100.00
57442;BME280;43284;47.042;15.498;2024-01-06T12:27:52;95697.06;;;5.35;100.00
57442;BME280;43284;47.042;15.498;2024-01-06T12:30:21;95696.16;;;5.36;100.00
57442;BME280;43284;47.042;15.498;2024-01-06T12:32:48;95699.56;;;5.37;100.00
57442;BME280;43284;47.042;15.498;2024-01-06T12:35:14;95700.41;;;5.37;100.00
57442;BME280;43284;47.042;15.498;2024-01-06T12:37:42;95698.66;;;5.38;100.00
57442;BME280;43284;47.042;15.498;2024-01-06T12:40:15;95696.84;;;5.40;100.00
57442;BME280;43284;47.042;15.498;2024-01-06T12:42:42;95696.75;;;5.42;100.00
57442;BME280;43284;47.042;15.498;2024-01-06T12:45:08;95694.91;;;5.44;100.00
57442;BME280;43284;47.042;15.498;2024-01-06T12:47:35;95697.50;;;5.44;100.00
57442;BME280;43284;47.042;15.498;2024-01-06T12:50:01;95693.06;;;5.46;100.00